createdAt,value
2023-05-11T00:00:50.534Z,101357.13
2023-05-11T00:03:17.667Z,101359.66
2023-05-11T00:05:48.294Z,101367.53
2023-05-11T00:08:17.141Z,101361.19
2023-05-11T00:10:47.603Z,101357.75
2023-05-11T00:13:14.831Z,101367.19
2023-05-11T00:15:41.981Z,101361.03
2023-05-11T00:18:10.387Z,101361.47
2023-05-11T00:20:37.320Z,101367.22
2023-05-11T00:23:04.292Z,101360.69
2023-05-11T00:25:31.185Z,101374.91
2023-05-11T00:27:58.049Z,101370.59
2023-05-11T00:30:24.919Z,101367.31
2023-05-11T00:32:52.170Z,101362.59
2023-05-11T00:35:21.152Z,101370.16
2023-05-11T00:37:48.268Z,101365.44
2023-05-11T00:40:15.378Z,101361.09
2023-05-11T00:42:42.358Z,101360.94
2023-05-11T00:45:09.757Z,101361.81
2023-05-11T00:47:37.440Z,101355.09
2023-05-11T00:50:05.648Z,101356.75
2023-05-11T00:52:34.330Z,101362.50
2023-05-11T00:55:01.518Z,101360.06
2023-05-11T00:57:30.374Z,101359.06
2023-05-11T00:59:57.500Z,101354.91
2023-05-11T01:02:24.518Z,101354.88
2023-05-11T01:04:52.665Z,101359.56
2023-05-11T01:07:26.144Z,101356.25
2023-05-11T01:10:06.398Z,101360.78
2023-05-11T01:12:46.121Z,101344.78
2023-05-11T01:15:24.136Z,101355.44
2023-05-11T01:17:58.212Z,101350.53
2023-05-11T01:20:28.756Z,101355.91
2023-05-11T01:23:34.949Z,101353.94
2023-05-11T01:26:26.385Z,101350.28
2023-05-11T01:29:18.510Z,101357.69
2023-05-11T01:31:49.695Z,101364.22
2023-05-11T01:34:21.694Z,101362.19
2023-05-11T01:36:53.352Z,101363.41
2023-05-11T01:39:28.826Z,101359.31
2023-05-11T01:41:59.858Z,101366.72
2023-05-11T01:44:33.163Z,101373.31
2023-05-11T01:47:03.404Z,101367.16
2023-05-11T01:49:38.547Z,101372.06
2023-05-11T01:52:09.728Z,101372.50
2023-05-11T01:54:40.094Z,101378.25
2023-05-11T01:57:09.428Z,101375.41
2023-05-11T01:59:40.446Z,101377.06
2023-05-11T02:02:12.168Z,101374.19
2023-05-11T02:04:41.237Z,101375.41
2023-05-11T02:07:11.847Z,101385.22
2023-05-11T02:09:41.702Z,101389.72
2023-05-11T02:12:12.160Z,101392.56
2023-05-11T02:14:42.423Z,101390.09
2023-05-11T02:17:11.384Z,101392.94
2023-05-11T02:19:41.993Z,101394.16
2023-05-11T02:22:10.146Z,101398.25
2023-05-11T02:24:37.818Z,101390.44
2023-05-11T02:27:05.198Z,101388.81
2023-05-11T02:29:32.629Z,101390.03
2023-05-11T02:32:07.687Z,101391.44
2023-05-11T02:34:41.310Z,101391.44
2023-05-11T02:37:15.216Z,101398.63
2023-05-11T02:39:48.211Z,101399.88
2023-05-11T02:42:20.571Z,101399.72
2023-05-11T02:44:58.738Z,101403.22
2023-05-11T02:47:30.933Z,101409.19
2023-05-11T02:50:04.126Z,101407.97
2023-05-11T02:52:33.141Z,101410.84
2023-05-11T02:55:02.098Z,101402.03
2023-05-11T02:57:29.281Z,101407.75
2023-05-11T02:59:56.230Z,101417.19
2023-05-11T03:02:23.466Z,101411.84
2023-05-11T03:04:50.482Z,101404.88
2023-05-11T03:07:18.757Z,101410.84
2023-05-11T03:09:45.696Z,101403.63
2023-05-11T03:12:15.094Z,101412.88
2023-05-11T03:14:44.022Z,101412.41
2023-05-11T03:17:14.730Z,101410.16
2023-05-11T03:19:42.916Z,101410.34
2023-05-11T03:22:11.258Z,101411.97
2023-05-11T03:24:40.881Z,101406.44
2023-05-11T03:27:09.388Z,101404.22
2023-05-11T03:29:39.934Z,101405.66
2023-05-11T03:32:06.837Z,101406.09
2023-05-11T03:34:33.769Z,101412.69
2023-05-11T03:37:01.880Z,101417.19
2023-05-11T03:39:32.482Z,101413.91
2023-05-11T03:42:03.892Z,101412.25
2023-05-11T03:44:33.772Z,101405.31
2023-05-11T03:47:02.237Z,101410.66
2023-05-11T03:49:30.952Z,101405.31
2023-05-11T03:51:58.094Z,101408.56
2023-05-11T03:54:25.388Z,101411.63
2023-05-11T03:56:52.780Z,101412.03
2023-05-11T03:59:22.465Z,101409.97
2023-05-11T04:01:52.951Z,101410.97
2023-05-11T04:04:20.018Z,101412.41
2023-05-11T04:06:46.928Z,101411.38
2023-05-11T04:09:13.876Z,101413.84
2023-05-11T04:11:40.782Z,101413.00
2023-05-11T04:14:07.712Z,101413.84
2023-05-11T04:16:36.045Z,101416.28
2023-05-11T04:19:03.079Z,101411.97
2023-05-11T04:21:30.026Z,101415.69
2023-05-11T04:23:56.873Z,101411.97
2023-05-11T04:26:23.776Z,101408.50
2023-05-11T04:28:50.708Z,101418.38
2023-05-11T04:31:17.649Z,101414.31
2023-05-11T04:33:45.992Z,101414.78
2023-05-11T04:36:12.934Z,101419.53
2023-05-11T04:38:39.884Z,101414.38
2023-05-11T04:41:08.296Z,101420.75
2023-05-11T04:43:35.532Z,101420.16
2023-05-11T04:46:02.418Z,101424.25
2023-05-11T04:48:29.306Z,101423.81
2023-05-11T04:50:57.804Z,101422.38
2023-05-11T04:53:24.792Z,101423.59
2023-05-11T04:55:51.688Z,101422.97
2023-05-11T04:58:18.628Z,101418.03
2023-05-11T05:00:45.579Z,101427.06
2023-05-11T05:03:12.612Z,101429.53
2023-05-11T05:05:39.485Z,101431.59
2023-05-11T05:08:07.810Z,101432.41
2023-05-11T05:10:34.809Z,101435.28
2023-05-11T05:13:01.673Z,101438.78
2023-05-11T05:15:28.721Z,101433.50
2023-05-11T05:17:55.622Z,101425.88
2023-05-11T05:20:22.624Z,101433.69
2023-05-11T05:22:49.591Z,101439.44
2023-05-11T05:25:17.877Z,101439.03
2023-05-11T05:27:44.743Z,101440.84
2023-05-11T05:30:12.318Z,101438.00
2023-05-11T05:32:39.187Z,101446.38
2023-05-11T05:35:07.056Z,101453.94
2023-05-11T05:37:33.931Z,101445.69
2023-05-11T05:40:00.877Z,101452.44
2023-05-11T05:42:29.364Z,101451.59
2023-05-11T05:44:56.287Z,101460.00
2023-05-11T05:47:23.265Z,101465.50
2023-05-11T05:49:50.199Z,101465.09
2023-05-11T05:52:18.100Z,101465.88
2023-05-11T05:54:44.962Z,101465.03
2023-05-11T05:57:12.767Z,101472.81
2023-05-11T05:59:42.581Z,101473.59
2023-05-11T06:02:09.775Z,101473.53
2023-05-11T06:04:36.949Z,101478.91
2023-05-11T06:07:04.019Z,101483.97
2023-05-11T06:09:30.918Z,101481.25
2023-05-11T06:11:57.823Z,101483.69
2023-05-11T06:14:24.822Z,101486.91
2023-05-11T06:16:53.626Z,101487.66
2023-05-11T06:19:21.085Z,101489.72
2023-05-11T06:21:48.546Z,101487.84
2023-05-11T06:24:15.519Z,101486.66
2023-05-11T06:26:42.540Z,101480.47
2023-05-11T06:29:09.429Z,101485.16
2023-05-11T06:31:36.901Z,101478.97
2023-05-11T06:34:05.196Z,101483.00
2023-05-11T06:36:32.923Z,101479.25
2023-05-11T06:38:59.943Z,101484.09
2023-05-11T06:41:27.052Z,101478.66
2023-05-11T06:43:54.072Z,101482.47
2023-05-11T06:46:22.135Z,101478.69
2023-05-11T06:48:50.204Z,101481.06
2023-05-11T06:51:21.067Z,101480.19
2023-05-11T06:53:48.548Z,101484.44
2023-05-11T06:56:15.987Z,101476.19
2023-05-11T06:58:42.984Z,101481.88
2023-05-11T07:01:11.679Z,101477.75
2023-05-11T07:03:38.628Z,101482.56
2023-05-11T07:06:05.720Z,101485.84
2023-05-11T07:08:34.207Z,101484.44
2023-05-11T07:11:01.389Z,101476.63
2023-05-11T07:13:28.381Z,101489.19
2023-05-11T07:15:57.558Z,101485.03
2023-05-11T07:18:24.910Z,101486.59
2023-05-11T07:20:51.866Z,101497.81
2023-05-11T07:23:18.959Z,101488.91
2023-05-11T07:25:47.129Z,101492.53
2023-05-11T07:28:14.031Z,101483.47
2023-05-11T07:30:41.182Z,101485.56
2023-05-11T07:33:08.218Z,101491.34
2023-05-11T07:35:35.509Z,101498.78
2023-05-11T07:38:03.327Z,101495.88
2023-05-11T07:40:30.227Z,101496.25
2023-05-11T07:42:58.411Z,101487.31
2023-05-11T07:45:25.537Z,101491.53
2023-05-11T07:47:53.267Z,101484.47
2023-05-11T07:50:22.957Z,101491.59
2023-05-11T07:52:51.397Z,101493.69
2023-05-11T07:55:20.392Z,101491.00
2023-05-11T07:57:47.794Z,101496.38
2023-05-11T08:00:17.259Z,101498.59
2023-05-11T08:02:44.609Z,101494.66
2023-05-11T08:05:12.395Z,101498.63
2023-05-11T08:07:41.554Z,101501.78
2023-05-11T08:10:10.064Z,101502.19
2023-05-11T08:12:37.388Z,101507.28
2023-05-11T08:15:06.078Z,101508.00
2023-05-11T08:17:34.639Z,101504.94
2023-05-11T08:20:01.827Z,101504.94
2023-05-11T08:22:30.881Z,101505.31
2023-05-11T08:24:58.977Z,101507.88
2023-05-11T08:27:29.558Z,101513.50
2023-05-11T08:29:56.545Z,101507.31
2023-05-11T08:32:23.574Z,101506.50
2023-05-11T08:34:56.827Z,101503.59
2023-05-11T08:37:25.362Z,101495.56
2023-05-11T08:39:52.699Z,101504.72
2023-05-11T08:42:23.666Z,101502.28
2023-05-11T08:44:55.056Z,101506.25
2023-05-11T08:47:23.930Z,101511.72
2023-05-11T08:49:53.113Z,101510.44
2023-05-11T08:52:20.645Z,101505.16
2023-05-11T08:54:48.101Z,101512.38
2023-05-11T08:57:16.564Z,101518.06
2023-05-11T08:59:48.075Z,101515.44
2023-05-11T09:02:19.820Z,101507.31
2023-05-11T09:04:48.869Z,101520.63
2023-05-11T09:07:19.414Z,101513.94
2023-05-11T09:09:47.721Z,101516.16
2023-05-11T09:12:16.161Z,101516.34
2023-05-11T09:14:43.671Z,101513.84
2023-05-11T09:17:11.064Z,101515.44
2023-05-11T09:19:58.907Z,101523.50
2023-05-11T09:22:30.315Z,101511.28
2023-05-11T09:24:59.353Z,101510.81
2023-05-11T09:27:26.604Z,101510.25
2023-05-11T09:29:54.624Z,101511.78
2023-05-11T09:32:26.690Z,101518.31
2023-05-11T09:34:53.999Z,101516.69
2023-05-11T09:37:21.215Z,101515.56
2023-05-11T09:40:25.152Z,101514.56
2023-05-11T09:42:42.725Z,101518.41
2023-05-11T09:45:10.672Z,101515.25
2023-05-11T09:47:42.869Z,101520.53
2023-05-11T09:50:18.061Z,101519.94
2023-05-11T09:52:53.759Z,101513.25
2023-05-11T09:55:22.190Z,101516.53
2023-05-11T09:57:58.073Z,101525.94
2023-05-11T10:00:25.513Z,101525.84
2023-05-11T10:03:04.822Z,101520.78
2023-05-11T10:05:34.396Z,101515.22
2023-05-11T10:08:03.919Z,101521.81
2023-05-11T10:10:34.524Z,101513.28
2023-05-11T10:13:03.522Z,101507.25
2023-05-11T10:15:35.167Z,101513.91
2023-05-11T10:18:02.761Z,101517.91
2023-05-11T10:20:29.780Z,101516.38
2023-05-11T10:22:56.867Z,101513.44
2023-05-11T10:25:26.409Z,101502.19
2023-05-11T10:27:57.530Z,101507.31
2023-05-11T10:30:24.836Z,101506.75
2023-05-11T10:32:53.067Z,101504.25
2023-05-11T10:35:21.344Z,101506.25
2023-05-11T10:37:48.759Z,101499.13
2023-05-11T10:40:16.468Z,101503.78
2023-05-11T10:43:23.474Z,101498.34
2023-05-11T10:46:03.629Z,101495.88
2023-05-11T10:49:08.037Z,101502.34
2023-05-11T10:52:07.212Z,101505.25
2023-05-11T10:54:51.961Z,101504.59
2023-05-11T10:57:44.925Z,101511.91
2023-05-11T11:01:15.267Z,101504.16
2023-05-11T11:03:42.353Z,101505.88
2023-05-11T11:06:23.928Z,101503.47
2023-05-11T11:08:59.917Z,101502.13
2023-05-11T11:11:36.740Z,101502.69
2023-05-11T11:14:05.921Z,101505.84
2023-05-11T11:16:35.333Z,101505.84
2023-05-11T11:19:37.415Z,101505.28
2023-05-11T11:22:05.069Z,101507.69
2023-05-11T11:24:46.601Z,101510.22
2023-05-11T11:27:14.687Z,101505.22
2023-05-11T11:29:41.810Z,101503.47
2023-05-11T11:32:27.636Z,101504.69
2023-05-11T11:34:55.012Z,101505.63
2023-05-11T11:37:23.720Z,101500.53
2023-05-11T11:40:08.870Z,101510.50
2023-05-11T11:42:44.071Z,101509.22
2023-05-11T11:45:32.258Z,101511.63
2023-05-11T11:48:15.507Z,101509.50
2023-05-11T11:50:46.402Z,101507.13
2023-05-11T11:53:47.718Z,101512.66
2023-05-11T11:56:43.694Z,101515.72
2023-05-11T11:59:15.968Z,101512.94
2023-05-11T12:01:44.877Z,101511.22
2023-05-11T12:04:50.599Z,101509.44
2023-05-11T12:07:21.342Z,101513.28
2023-05-11T12:09:48.627Z,101514.25
2023-05-11T12:12:18.077Z,101506.97
2023-05-11T12:14:49.012Z,101510.31
2023-05-11T12:17:25.277Z,101513.31
2023-05-11T12:19:53.963Z,101508.72
2023-05-11T12:22:25.132Z,101508.88
2023-05-11T12:24:57.750Z,101510.19
2023-05-11T12:27:26.672Z,101516.38
2023-05-11T12:29:54.017Z,101511.34
2023-05-11T12:32:28.365Z,101505.09
2023-05-11T12:35:01.665Z,101507.22
2023-05-11T12:37:30.493Z,101509.66
2023-05-11T12:39:59.234Z,101512.50
2023-05-11T12:42:26.906Z,101508.63
2023-05-11T12:44:55.605Z,101508.13
2023-05-11T12:47:22.786Z,101509.03
2023-05-11T12:49:50.951Z,101512.34
2023-05-11T12:52:19.222Z,101508.84
2023-05-11T12:54:54.980Z,101511.38
2023-05-11T12:57:27.193Z,101507.56
2023-05-11T13:00:11.735Z,101505.41
2023-05-11T13:02:51.922Z,101499.53
2023-05-11T13:05:24.919Z,101508.13
2023-05-11T13:07:59.653Z,101508.47
2023-05-11T13:10:27.306Z,101507.00
2023-05-11T13:12:55.436Z,101504.88
2023-05-11T13:15:24.490Z,101502.31
2023-05-11T13:17:58.577Z,101502.91
2023-05-11T13:20:27.686Z,101500.06
2023-05-11T13:23:06.134Z,101494.22
2023-05-11T13:25:34.635Z,101484.41
2023-05-11T13:28:01.698Z,101492.09
2023-05-11T13:30:28.705Z,101491.56
2023-05-11T13:32:55.695Z,101490.41
2023-05-11T13:35:22.693Z,101481.34
2023-05-11T13:37:49.597Z,101481.09
2023-05-11T13:40:18.185Z,101485.03
2023-05-11T13:42:45.509Z,101472.97
2023-05-11T13:45:12.566Z,101478.03
2023-05-11T13:47:39.549Z,101482.75
2023-05-11T13:50:09.116Z,101477.75
2023-05-11T13:52:37.102Z,101473.44
2023-05-11T13:55:04.926Z,101470.50
2023-05-11T13:57:33.199Z,101464.31
2023-05-11T14:00:00.206Z,101468.13
2023-05-11T14:02:27.305Z,101467.09
2023-05-11T14:04:54.395Z,101460.59
2023-05-11T14:07:23.932Z,101467.00
2023-05-11T14:09:54.525Z,101459.28
2023-05-11T14:12:22.040Z,101458.03
2023-05-11T14:14:51.270Z,101455.78
2023-05-11T14:17:18.623Z,101462.56
2023-05-11T14:19:47.451Z,101464.16
2023-05-11T14:22:17.990Z,101456.91
2023-05-11T14:24:45.673Z,101462.56
2023-05-11T14:27:15.995Z,101458.47
2023-05-11T14:29:44.204Z,101452.91
2023-05-11T14:32:12.630Z,101459.28
2023-05-11T14:34:39.573Z,101459.50
2023-05-11T14:37:06.466Z,101456.81
2023-05-11T14:39:33.432Z,101466.44
2023-05-11T14:42:00.329Z,101456.88
2023-05-11T14:44:27.235Z,101457.78
2023-05-11T14:46:54.246Z,101465.25
2023-05-11T14:49:22.522Z,101459.50
2023-05-11T14:51:49.670Z,101455.44
2023-05-11T14:54:16.740Z,101466.91
2023-05-11T14:56:46.085Z,101461.09
2023-05-11T14:59:13.077Z,101470.94
2023-05-11T15:01:40.005Z,101458.22
2023-05-11T15:04:07.023Z,101460.34
2023-05-11T15:06:35.422Z,101456.25
2023-05-11T15:09:02.461Z,101457.53
2023-05-11T15:11:29.340Z,101459.41
2023-05-11T15:13:56.230Z,101461.53
2023-05-11T15:16:23.189Z,101460.84
2023-05-11T15:18:50.292Z,101465.84
2023-05-11T15:21:17.256Z,101457.22
2023-05-11T15:23:45.625Z,101463.41
2023-05-11T15:26:14.277Z,101466.69
2023-05-11T15:28:41.243Z,101472.03
2023-05-11T15:31:08.483Z,101470.91
2023-05-11T15:33:35.869Z,101467.06
2023-05-11T15:36:02.978Z,101468.94
2023-05-11T15:38:30.143Z,101468.69
2023-05-11T15:40:58.901Z,101460.63
2023-05-11T15:43:25.858Z,101470.53
2023-05-11T15:45:54.253Z,101473.47
2023-05-11T15:48:22.037Z,101471.84
2023-05-11T15:50:49.242Z,101468.25
2023-05-11T15:53:16.335Z,101473.13
2023-05-11T15:55:45.730Z,101470.22
2023-05-11T15:58:14.161Z,101480.72
2023-05-11T16:00:41.128Z,101487.72
2023-05-11T16:03:08.163Z,101501.72
2023-05-11T16:05:38.352Z,101497.28
2023-05-11T16:08:06.253Z,101509.63
2023-05-11T16:10:33.524Z,101510.06
2023-05-11T16:13:00.384Z,101489.53
2023-05-11T16:15:29.713Z,101488.34
2023-05-11T16:17:56.752Z,101503.47
2023-05-11T16:20:23.851Z,101499.25
2023-05-11T16:22:50.755Z,101483.63
2023-05-11T16:25:17.921Z,101475.00
2023-05-11T16:27:44.862Z,101464.75
2023-05-11T16:30:23.182Z,101441.69
2023-05-11T16:32:53.691Z,101453.91
2023-05-11T16:35:21.117Z,101451.09
2023-05-11T16:37:48.427Z,101466.34
2023-05-11T16:40:20.756Z,101474.16
2023-05-11T16:42:48.831Z,101473.13
2023-05-11T16:45:16.468Z,101464.38
2023-05-11T16:47:45.267Z,101458.56
2023-05-11T16:50:14.710Z,101460.56
2023-05-11T16:52:42.021Z,101459.28
2023-05-11T16:55:10.131Z,101462.94
2023-05-11T16:57:37.242Z,101471.06
2023-05-11T17:00:06.280Z,101467.94
2023-05-11T17:02:33.354Z,101459.91
2023-05-11T17:05:00.470Z,101462.56
2023-05-11T17:07:28.709Z,101456.19
2023-05-11T17:09:57.116Z,101455.59
2023-05-11T17:12:24.553Z,101449.03
2023-05-11T17:14:51.574Z,101444.38
2023-05-11T17:17:18.506Z,101452.53
2023-05-11T17:19:45.452Z,101450.75
2023-05-11T17:22:12.453Z,101453.09
2023-05-11T17:24:40.981Z,101455.38
2023-05-11T17:27:08.009Z,101450.50
2023-05-11T17:29:34.910Z,101454.66
2023-05-11T17:32:01.932Z,101454.31
2023-05-11T17:34:29.758Z,101454.78
2023-05-11T17:36:56.911Z,101457.69
2023-05-11T17:39:23.851Z,101458.72
2023-05-11T17:41:52.058Z,101453.59
2023-05-11T17:44:18.949Z,101458.97
2023-05-11T17:46:46.188Z,101461.41
2023-05-11T17:49:13.054Z,101460.56
2023-05-11T17:51:40.026Z,101456.50
2023-05-11T17:54:06.923Z,101464.53
2023-05-11T17:56:33.932Z,101461.25
2023-05-11T17:59:02.249Z,101465.22
2023-05-11T18:01:29.283Z,101471.84
2023-05-11T18:03:58.010Z,101470.22
2023-05-11T18:06:25.109Z,101470.22
2023-05-11T18:08:52.433Z,101479.28
2023-05-11T18:11:19.750Z,101479.28
2023-05-11T18:13:47.120Z,101479.28
2023-05-11T18:16:16.926Z,101485.22
2023-05-11T18:18:44.763Z,101484.19
2023-05-11T18:21:11.794Z,101475.56
2023-05-11T18:23:38.820Z,101478.44
2023-05-11T18:26:06.711Z,101470.66
2023-05-11T18:28:33.644Z,101472.75
2023-05-11T18:31:00.584Z,101471.09
2023-05-11T18:33:28.914Z,101471.56
2023-05-11T18:35:56.043Z,101479.47
2023-05-11T18:38:23.001Z,101475.38
2023-05-11T18:40:51.025Z,101476.84
2023-05-11T18:43:17.929Z,101478.13
2023-05-11T18:45:46.214Z,101479.00
2023-05-11T18:48:13.215Z,101481.53
2023-05-11T18:50:41.810Z,101486.72
2023-05-11T18:53:08.751Z,101482.88
2023-05-11T18:55:48.906Z,101487.25
2023-05-11T18:58:20.508Z,101482.34
2023-05-11T19:00:48.420Z,101481.97
2023-05-11T19:03:16.105Z,101483.22
2023-05-11T19:05:44.823Z,101492.97
2023-05-11T19:08:12.249Z,101501.44
2023-05-11T19:10:40.369Z,101507.22
2023-05-11T19:13:08.208Z,101512.00
2023-05-11T19:15:35.440Z,101509.75
2023-05-11T19:18:02.723Z,101515.53
2023-05-11T19:20:29.650Z,101503.63
2023-05-11T19:22:57.840Z,101505.94
2023-05-11T19:25:24.758Z,101509.06
2023-05-11T19:27:52.074Z,101511.13
2023-05-11T19:30:19.506Z,101520.00
2023-05-11T19:32:47.870Z,101536.03
2023-05-11T19:35:14.991Z,101546.09
2023-05-11T19:37:42.091Z,101579.50
2023-05-11T19:40:43.579Z,101574.28
2023-05-11T19:42:58.702Z,101550.25
2023-05-11T19:45:25.789Z,101562.41
2023-05-11T19:47:52.737Z,101563.44
2023-05-11T19:50:22.710Z,101565.91
2023-05-11T19:52:51.665Z,101564.66
2023-05-11T19:55:20.272Z,101562.16
2023-05-11T19:57:47.773Z,101556.16
2023-05-11T20:00:17.841Z,101539.47
2023-05-11T20:02:45.206Z,101543.78
2023-05-11T20:05:12.171Z,101541.94
2023-05-11T20:07:39.450Z,101547.50
2023-05-11T20:10:08.035Z,101546.44
2023-05-11T20:12:38.000Z,101546.03
2023-05-11T20:15:06.518Z,101549.72
2023-05-11T20:17:34.690Z,101549.13
2023-05-11T20:20:02.490Z,101550.38
2023-05-11T20:22:29.499Z,101546.91
2023-05-11T20:24:56.716Z,101547.94
2023-05-11T20:27:24.362Z,101547.94
2023-05-11T20:29:52.656Z,101552.03
2023-05-11T20:32:19.554Z,101549.13
2023-05-11T20:34:46.506Z,101549.13
2023-05-11T20:37:14.208Z,101551.78
2023-05-11T20:39:41.099Z,101551.38
2023-05-11T20:42:08.608Z,101551.38
2023-05-11T20:44:35.601Z,101548.47
2023-05-11T20:47:04.366Z,101554.03
2023-05-11T20:49:38.792Z,101554.88
2023-05-11T20:52:06.945Z,101564.31
2023-05-11T20:54:34.985Z,101559.34
2023-05-11T20:57:02.667Z,101557.09
2023-05-11T21:02:02.819Z,101566.06
2023-05-11T21:04:31.212Z,101555.19
2023-05-11T21:06:58.160Z,101555.78
2023-05-11T21:09:25.441Z,101554.75
2023-05-11T21:11:52.442Z,101541.38
2023-05-11T21:14:20.021Z,101540.31
2023-05-11T21:16:47.626Z,101537.06
2023-05-11T21:19:16.385Z,101540.75
2023-05-11T21:21:43.401Z,101549.84
2023-05-11T21:24:10.504Z,101550.25
2023-05-11T21:26:37.581Z,101550.69
2023-05-11T21:29:04.513Z,101552.75
2023-05-11T21:31:31.537Z,101555.88
2023-05-11T21:33:58.468Z,101546.19
2023-05-11T21:36:26.786Z,101542.09
2023-05-11T21:38:53.674Z,101545.00
2023-05-11T21:41:20.660Z,101543.34
2023-05-11T21:43:47.646Z,101536.97
2023-05-11T21:46:14.525Z,101542.91
2023-05-11T21:48:42.205Z,101546.19
2023-05-11T21:51:09.247Z,101541.25
2023-05-11T21:53:37.473Z,101551.16
2023-05-11T21:56:04.955Z,101546.59
2023-05-11T21:58:32.531Z,101547.84
2023-05-11T22:00:59.412Z,101546.78
2023-05-11T22:03:28.392Z,101549.47
2023-05-11T22:05:55.411Z,101547.66
2023-05-11T22:08:22.307Z,101547.41
2023-05-11T22:10:50.540Z,101550.09
2023-05-11T22:13:17.433Z,101554.63
2023-05-11T22:15:44.316Z,101555.44
2023-05-11T22:18:11.251Z,101551.16
2023-05-11T22:20:38.128Z,101554.81
2023-05-11T22:23:05.136Z,101562.84
2023-05-11T22:25:32.127Z,101559.56
2023-05-11T22:28:00.721Z,101555.47
2023-05-11T22:30:27.593Z,101561.25
2023-05-11T22:32:54.491Z,101562.50
2023-05-11T22:35:22.574Z,101560.28
2023-05-11T22:37:49.717Z,101561.28
2023-05-11T22:40:16.950Z,101567.66
2023-05-11T22:42:44.035Z,101560.69
2023-05-11T22:45:12.374Z,101567.28
2023-05-11T22:47:39.897Z,101571.81
2023-05-11T22:50:11.591Z,101573.88
2023-05-11T22:52:38.989Z,101572.22
2023-05-11T22:55:07.529Z,101576.78
2023-05-11T22:57:34.394Z,101572.69
2023-05-11T23:00:01.277Z,101577.22
2023-05-11T23:02:30.024Z,101572.09
2023-05-11T23:04:57.452Z,101574.34
2023-05-11T23:07:24.402Z,101580.94
2023-05-11T23:09:52.738Z,101570.69
2023-05-11T23:12:19.770Z,101577.91
2023-05-11T23:14:46.893Z,101581.38
2023-05-11T23:17:13.875Z,101583.03
2023-05-11T23:19:42.312Z,101580.34
2023-05-11T23:22:09.355Z,101576.03
2023-05-11T23:24:36.402Z,101579.53
2023-05-11T23:27:03.612Z,101577.69
2023-05-11T23:29:30.592Z,101576.03
2023-05-11T23:31:57.511Z,101581.81
2023-05-11T23:34:24.393Z,101579.34
2023-05-11T23:36:52.695Z,101569.09
2023-05-11T23:39:19.589Z,101575.69
2023-05-11T23:41:46.459Z,101571.59
2023-05-11T23:44:13.341Z,101579.44
2023-05-11T23:46:40.343Z,101566.72
2023-05-11T23:49:07.626Z,101576.16
2023-05-11T23:51:34.648Z,101572.28
2023-05-11T23:54:02.960Z,101579.09
2023-05-11T23:56:29.869Z,101578.91
2023-05-11T23:58:56.803Z,101589.00
